createdAt,value
2019-04-25T00:00:57.404Z,70.92
2019-04-25T00:03:27.452Z,68.76
2019-04-25T00:06:06.752Z,70.21
2019-04-25T00:08:34.172Z,71.72
2019-04-25T00:11:02.950Z,76.73
2019-04-25T00:13:31.716Z,74.17
2019-04-25T00:15:59.267Z,76.70
2019-04-25T00:18:26.836Z,74.31
2019-04-25T00:20:58.917Z,73.30
2019-04-25T00:23:26.395Z,73.05
2019-04-25T00:26:02.570Z,78.05
2019-04-25T00:28:29.751Z,72.15
2019-04-25T00:30:57.262Z,72.78
2019-04-25T00:33:24.726Z,76.32
2019-04-25T00:35:52.782Z,73.28
2019-04-25T00:38:20.194Z,78.11
2019-04-25T00:40:48.075Z,80.76
2019-04-25T00:43:15.622Z,79.17
2019-04-25T00:45:44.309Z,78.89
2019-04-25T00:48:15.478Z,75.05
2019-04-25T00:50:43.426Z,76.84
2019-04-25T00:53:11.789Z,76.83
2019-04-25T00:55:39.067Z,75.18
2019-04-25T00:58:15.200Z,73.76
2019-04-25T01:00:53.372Z,74.15
2019-04-25T01:03:25.212Z,75.21
2019-04-25T01:05:53.666Z,76.46
2019-04-25T01:08:22.059Z,78.26
2019-04-25T01:10:50.402Z,74.26
2019-04-25T01:13:18.780Z,75.62
2019-04-25T01:15:46.416Z,75.73
2019-04-25T01:18:13.854Z,77.36
2019-04-25T01:20:41.129Z,76.37
2019-04-25T01:23:08.621Z,77.35
2019-04-25T01:25:40.925Z,76.82
2019-04-25T01:28:05.540Z,79.92
2019-04-25T01:30:33.979Z,79.39
2019-04-25T01:33:01.449Z,77.89
2019-04-25T01:35:41.256Z,80.25
2019-04-25T01:38:17.649Z,79.21
2019-04-25T01:40:55.621Z,79.36
2019-04-25T01:43:55.149Z,78.39
2019-04-25T01:46:21.846Z,78.80
2019-04-25T01:48:50.083Z,78.41
2019-04-25T01:51:17.751Z,78.75
2019-04-25T01:53:45.115Z,79.36
2019-04-25T01:56:13.544Z,78.67
2019-04-25T01:58:41.316Z,79.39
2019-04-25T02:01:09.110Z,77.45
2019-04-25T02:03:36.526Z,76.76
2019-04-25T02:06:05.053Z,78.35
2019-04-25T02:08:33.977Z,77.92
2019-04-25T02:11:24.085Z,76.62
2019-04-25T02:13:51.517Z,79.56
2019-04-25T02:16:19.026Z,75.04
2019-04-25T02:18:46.285Z,77.46
2019-04-25T02:21:13.866Z,76.18
2019-04-25T02:23:41.516Z,79.69
2019-04-25T02:26:15.630Z,80.61
2019-04-25T02:28:38.026Z,79.84
2019-04-25T02:31:08.615Z,79.18
2019-04-25T02:33:34.441Z,80.74
2019-04-25T02:36:04.073Z,80.70
2019-04-25T02:38:31.081Z,81.15
2019-04-25T02:40:59.493Z,80.30
2019-04-25T02:43:27.723Z,80.78
2019-04-25T02:46:34.811Z,78.27
2019-04-25T02:49:29.966Z,76.45
2019-04-25T02:52:00.774Z,81.51
2019-04-25T02:54:28.436Z,79.18
2019-04-25T02:56:56.997Z,81.52
2019-04-25T02:59:25.358Z,81.32
2019-04-25T03:01:54.172Z,79.33
2019-04-25T03:04:23.897Z,81.98
2019-04-25T03:06:51.022Z,79.64
2019-04-25T03:09:18.292Z,82.35
2019-04-25T03:11:47.709Z,82.30
2019-04-25T03:14:15.006Z,82.95
2019-04-25T03:16:44.644Z,83.55
2019-04-25T03:19:30.310Z,80.68
2019-04-25T03:22:00.167Z,79.70
2019-04-25T03:24:28.277Z,79.45
2019-04-25T03:26:55.634Z,77.62
2019-04-25T03:29:24.671Z,77.58
2019-04-25T03:31:52.285Z,79.61
2019-04-25T03:34:20.752Z,81.42
2019-04-25T03:36:48.204Z,79.21
2019-04-25T03:39:16.518Z,79.17
2019-04-25T03:41:45.459Z,81.17
2019-04-25T03:44:16.702Z,80.78
2019-04-25T03:46:44.192Z,80.10
2019-04-25T03:49:11.860Z,77.83
2019-04-25T03:51:39.157Z,77.61
2019-04-25T03:54:07.498Z,79.33
2019-04-25T03:56:35.816Z,79.89
2019-04-25T03:59:05.824Z,78.34
2019-04-25T04:01:34.153Z,76.56
2019-04-25T04:04:04.313Z,76.08
2019-04-25T04:06:30.862Z,76.79
2019-04-25T04:08:57.996Z,75.64
2019-04-25T04:11:25.121Z,79.13
2019-04-25T04:13:53.516Z,76.34
2019-04-25T04:16:23.951Z,76.85
2019-04-25T04:18:54.091Z,76.61
2019-04-25T04:21:46.970Z,77.55
2019-04-25T04:24:34.237Z,79.42
2019-04-25T04:27:17.817Z,79.72
2019-04-25T04:29:45.066Z,80.05
2019-04-25T04:32:14.103Z,78.27
2019-04-25T04:34:45.097Z,79.28
2019-04-25T04:37:11.163Z,78.01
2019-04-25T04:39:38.516Z,76.78
2019-04-25T04:42:05.700Z,77.97
2019-04-25T04:44:34.323Z,78.17
2019-04-25T04:47:04.010Z,79.42
2019-04-25T04:49:31.784Z,79.42
2019-04-25T04:51:59.137Z,76.04
2019-04-25T04:54:26.353Z,79.96
2019-04-25T04:56:53.726Z,79.05
2019-04-25T04:59:20.907Z,76.82
2019-04-25T05:02:06.381Z,75.89
2019-04-25T05:04:43.670Z,76.46
2019-04-25T05:07:30.725Z,76.70
2019-04-25T05:09:57.883Z,78.78
2019-04-25T05:12:25.038Z,78.35
2019-04-25T05:14:53.684Z,76.87
2019-04-25T05:17:21.825Z,76.05
2019-04-25T05:19:49.256Z,75.79
2019-04-25T05:22:16.855Z,79.67
2019-04-25T05:24:44.166Z,76.98
2019-04-25T05:27:12.771Z,76.08
2019-04-25T05:29:40.601Z,81.88
2019-04-25T05:32:07.830Z,77.06
2019-04-25T05:34:35.203Z,77.17
2019-04-25T05:37:03.811Z,83.07
2019-04-25T05:39:31.153Z,84.44
2019-04-25T05:42:07.735Z,84.18
2019-04-25T05:44:35.209Z,84.87
2019-04-25T05:47:04.114Z,85.62
2019-04-25T05:49:31.748Z,87.17
2019-04-25T05:51:59.111Z,85.81
2019-04-25T05:54:26.907Z,83.12
2019-04-25T05:56:54.429Z,81.50
2019-04-25T05:59:21.932Z,81.92
2019-04-25T06:01:49.414Z,81.15
2019-04-25T06:04:17.873Z,79.82
2019-04-25T06:06:45.126Z,80.12
2019-04-25T06:09:31.918Z,80.20
2019-04-25T06:12:10.498Z,80.44
2019-04-25T06:14:37.756Z,80.40
2019-04-25T06:17:08.678Z,79.96
2019-04-25T06:19:40.351Z,79.06
2019-04-25T06:22:13.103Z,80.09
2019-04-25T06:24:46.494Z,80.30
2019-04-25T06:27:28.401Z,79.49
2019-04-25T06:30:10.816Z,79.65
2019-04-25T06:32:38.071Z,79.87
2019-04-25T06:35:06.600Z,79.85
2019-04-25T06:37:35.042Z,78.16
2019-04-25T06:40:05.099Z,79.17
2019-04-25T06:42:34.678Z,78.30
2019-04-25T06:45:26.630Z,77.39
2019-04-25T06:48:16.144Z,77.14
2019-04-25T06:50:43.836Z,76.56
2019-04-25T06:53:11.066Z,77.58
2019-04-25T06:55:38.213Z,74.38
2019-04-25T06:58:11.717Z,77.36
2019-04-25T07:00:40.947Z,77.98
2019-04-25T07:03:04.551Z,75.35
2019-04-25T07:05:35.884Z,74.66
2019-04-25T07:08:01.285Z,76.70
2019-04-25T07:10:29.438Z,75.10
2019-04-25T07:12:56.885Z,75.93
2019-04-25T07:15:24.935Z,74.37
2019-04-25T07:17:54.050Z,72.10
2019-04-25T07:20:24.672Z,74.17
2019-04-25T07:22:51.265Z,73.80
2019-04-25T07:25:19.921Z,72.65
2019-04-25T07:28:27.163Z,71.52
2019-04-25T07:31:09.769Z,72.66
2019-04-25T07:33:59.874Z,73.13
2019-04-25T07:36:28.156Z,75.05
2019-04-25T07:39:07.663Z,72.44
2019-04-25T07:41:25.958Z,70.73
2019-04-25T07:43:53.383Z,71.32
2019-04-25T07:46:20.822Z,72.10
2019-04-25T07:48:48.103Z,70.30
2019-04-25T07:51:16.496Z,70.96
2019-04-25T07:53:44.070Z,70.45
2019-04-25T07:56:11.568Z,70.21
2019-04-25T07:58:49.541Z,68.58
2019-04-25T08:01:10.767Z,69.46
2019-04-25T08:03:38.116Z,68.89
2019-04-25T08:06:08.772Z,68.96
2019-04-25T08:08:36.155Z,67.38
2019-04-25T08:11:06.573Z,66.22
2019-04-25T08:13:56.888Z,66.47
2019-04-25T08:16:26.067Z,65.44
2019-04-25T08:18:54.083Z,67.80
2019-04-25T08:21:23.784Z,65.38
2019-04-25T08:23:53.336Z,64.54
2019-04-25T08:26:21.058Z,63.20
2019-04-25T08:28:54.439Z,64.33
2019-04-25T08:31:18.006Z,62.72
2019-04-25T08:33:46.546Z,62.98
2019-04-25T08:36:14.100Z,63.52
2019-04-25T08:38:42.413Z,63.13
2019-04-25T08:41:10.416Z,61.52
2019-04-25T08:43:39.422Z,59.71
2019-04-25T08:46:07.261Z,61.24
2019-04-25T08:48:54.169Z,59.18
2019-04-25T08:51:23.403Z,58.17
2019-04-25T08:53:59.015Z,56.92
2019-04-25T08:56:31.208Z,57.13
2019-04-25T08:59:17.680Z,56.24
2019-04-25T09:01:54.743Z,55.70
2019-04-25T09:04:47.755Z,50.70
2019-04-25T09:07:15.022Z,53.90
2019-04-25T09:09:44.012Z,56.99
2019-04-25T09:12:11.468Z,53.81
2019-04-25T09:14:41.551Z,55.46
2019-04-25T09:17:08.951Z,52.15
2019-04-25T09:19:37.169Z,54.23
2019-04-25T09:22:05.437Z,55.04
2019-04-25T09:24:36.668Z,55.99
2019-04-25T09:27:04.057Z,48.12
2019-04-25T09:29:31.318Z,47.58
2019-04-25T09:31:58.563Z,56.02
2019-04-25T09:34:25.826Z,50.19
2019-04-25T09:36:53.594Z,53.26
2019-04-25T09:39:29.071Z,51.06
2019-04-25T09:41:56.351Z,53.94
2019-04-25T09:44:28.887Z,45.24
2019-04-25T09:46:56.351Z,47.77
2019-04-25T09:49:28.432Z,48.76
2019-04-25T09:51:59.715Z,46.55
2019-04-25T09:54:36.213Z,44.45
2019-04-25T09:57:39.794Z,39.74
2019-04-25T10:00:14.669Z,44.02
2019-04-25T10:02:42.336Z,43.98
2019-04-25T10:05:09.836Z,42.75
2019-04-25T10:07:37.338Z,41.55
2019-04-25T10:10:06.788Z,42.76
2019-04-25T10:12:34.296Z,39.21
2019-04-25T10:15:43.024Z,41.83
2019-04-25T10:18:25.743Z,39.35
2019-04-25T10:20:54.230Z,40.21
2019-04-25T10:23:22.054Z,33.48
2019-04-25T10:25:50.412Z,31.87
2019-04-25T10:28:17.818Z,36.07
2019-04-25T10:30:45.280Z,34.33
2019-04-25T10:33:14.635Z,37.75
2019-04-25T10:35:52.026Z,33.22
2019-04-25T10:38:13.929Z,38.27
2019-04-25T10:40:45.133Z,36.50
2019-04-25T10:43:14.232Z,37.24
2019-04-25T10:45:44.357Z,37.34
2019-04-25T10:48:13.691Z,37.28
2019-04-25T10:50:41.725Z,36.72
2019-04-25T10:53:09.292Z,35.92
2019-04-25T10:55:36.794Z,36.17
2019-04-25T10:58:04.182Z,33.36
2019-04-25T11:00:42.247Z,30.22
2019-04-25T11:03:29.413Z,34.46
2019-04-25T11:05:57.196Z,34.18
2019-04-25T11:08:24.779Z,33.23
2019-04-25T11:10:53.805Z,27.68
2019-04-25T11:13:22.297Z,31.80
2019-04-25T11:15:50.538Z,28.84
2019-04-25T11:18:17.971Z,30.25
2019-04-25T11:20:45.442Z,30.25
2019-04-25T11:23:14.000Z,30.24
2019-04-25T11:25:41.660Z,32.04
2019-04-25T11:28:09.563Z,30.58
2019-04-25T11:30:37.103Z,28.41
2019-04-25T11:33:05.235Z,27.34
2019-04-25T11:35:34.216Z,27.03
2019-04-25T11:38:05.501Z,29.31
2019-04-25T11:40:38.535Z,29.98
2019-04-25T11:43:06.115Z,28.31
2019-04-25T11:45:34.668Z,25.57
2019-04-25T11:48:02.131Z,28.32
2019-04-25T11:50:29.714Z,26.71
2019-04-25T11:52:57.110Z,26.37
2019-04-25T11:55:24.620Z,28.56
2019-04-25T11:57:53.174Z,26.07
2019-04-25T12:00:24.808Z,25.71
2019-04-25T12:02:52.710Z,29.27
2019-04-25T12:05:20.184Z,29.30
2019-04-25T12:07:47.922Z,25.00
2019-04-25T12:10:16.479Z,27.74
2019-04-25T12:12:47.264Z,25.92
2019-04-25T12:15:15.100Z,25.76
2019-04-25T12:17:42.566Z,26.49
2019-04-25T12:20:10.844Z,29.05
2019-04-25T12:22:38.309Z,26.29
2019-04-25T12:25:06.193Z,26.41
2019-04-25T12:27:33.663Z,24.34
2019-04-25T12:30:05.462Z,23.07
2019-04-25T12:32:35.042Z,21.26
2019-04-25T12:35:04.117Z,22.20
2019-04-25T12:37:33.639Z,23.44
2019-04-25T12:40:04.055Z,27.03
2019-04-25T12:42:30.649Z,27.53
2019-04-25T12:45:14.330Z,21.74
2019-04-25T12:47:43.477Z,23.84
2019-04-25T12:50:11.442Z,22.88
2019-04-25T12:52:38.816Z,24.83
2019-04-25T12:55:07.111Z,22.92
2019-04-25T12:57:34.503Z,22.07
2019-04-25T13:00:01.817Z,20.19
2019-04-25T13:02:34.550Z,20.18
2019-04-25T13:05:04.352Z,23.03
2019-04-25T13:07:33.020Z,22.27
2019-04-25T13:10:00.364Z,24.51
2019-04-25T13:12:40.507Z,21.05
2019-04-25T13:15:09.811Z,24.21
2019-04-25T13:17:38.197Z,24.43
2019-04-25T13:20:05.845Z,23.16
2019-04-25T13:22:39.611Z,24.81
2019-04-25T13:25:08.515Z,21.24
2019-04-25T13:27:45.620Z,22.78
2019-04-25T13:30:31.705Z,24.22
2019-04-25T13:33:29.701Z,24.08
2019-04-25T13:36:02.646Z,22.02
2019-04-25T13:38:30.125Z,21.11
2019-04-25T13:40:58.251Z,21.54
2019-04-25T13:43:25.796Z,21.10
2019-04-25T13:45:53.181Z,20.49
2019-04-25T13:48:20.454Z,22.66
2019-04-25T13:50:48.142Z,20.03
2019-04-25T13:53:15.660Z,21.39
2019-04-25T13:55:42.939Z,21.03
2019-04-25T13:58:11.390Z,21.08
2019-04-25T14:00:38.961Z,20.79
2019-04-25T14:03:06.305Z,20.87
2019-04-25T14:05:35.263Z,20.72
2019-04-25T14:08:02.860Z,22.83
2019-04-25T14:10:30.758Z,23.04
2019-04-25T14:12:58.245Z,23.11
2019-04-25T14:15:34.305Z,22.77
2019-04-25T14:18:24.158Z,20.28
2019-04-25T14:21:03.750Z,22.42
2019-04-25T14:23:31.319Z,21.71
2019-04-25T14:25:58.478Z,20.72
2019-04-25T14:28:29.325Z,20.65
2019-04-25T14:30:55.062Z,20.77
2019-04-25T14:33:24.865Z,20.20
2019-04-25T14:35:53.467Z,20.07
2019-04-25T14:38:21.220Z,21.39
2019-04-25T14:40:48.637Z,21.04
2019-04-25T14:43:15.905Z,20.70
2019-04-25T14:45:45.109Z,22.37
2019-04-25T14:48:12.829Z,22.39
2019-04-25T14:50:40.104Z,21.01
2019-04-25T14:53:07.528Z,21.73
2019-04-25T14:55:54.561Z,22.79
2019-04-25T14:58:26.136Z,20.99
2019-04-25T15:00:53.660Z,21.99
2019-04-25T15:03:21.269Z,22.70
2019-04-25T15:05:51.012Z,23.55
2019-04-25T15:08:20.364Z,23.81
2019-04-25T15:10:50.294Z,24.34
2019-04-25T15:13:27.760Z,20.38
2019-04-25T15:15:56.417Z,22.40
2019-04-25T15:18:24.737Z,21.07
2019-04-25T15:20:52.054Z,20.68
2019-04-25T15:23:19.235Z,21.58
2019-04-25T15:25:46.478Z,22.32
2019-04-25T15:28:13.835Z,21.84
2019-04-25T15:30:41.243Z,21.45
2019-04-25T15:33:08.610Z,19.46
2019-04-25T15:35:47.937Z,22.41
2019-04-25T15:38:21.761Z,22.40
2019-04-25T15:41:02.555Z,21.00
2019-04-25T15:43:37.332Z,22.68
2019-04-25T15:46:13.270Z,20.45
2019-04-25T15:48:40.631Z,20.24
2019-04-25T15:51:07.903Z,21.75
2019-04-25T15:53:35.436Z,19.40
2019-04-25T15:56:02.903Z,18.79
2019-04-25T15:58:30.234Z,20.90
2019-04-25T16:00:57.595Z,21.26
2019-04-25T16:03:24.958Z,18.09
2019-04-25T16:05:52.534Z,19.71
2019-04-25T16:08:19.708Z,19.52
2019-04-25T16:10:47.051Z,20.93
2019-04-25T16:13:14.397Z,18.64
2019-04-25T16:15:41.656Z,19.45
2019-04-25T16:18:10.109Z,21.91
2019-04-25T16:20:37.367Z,21.12
2019-04-25T16:23:05.738Z,21.56
2019-04-25T16:25:33.362Z,20.23
2019-04-25T16:28:00.754Z,21.34
2019-04-25T16:30:31.183Z,21.36
2019-04-25T16:32:58.564Z,22.19
2019-04-25T16:35:25.708Z,21.47
2019-04-25T16:37:52.990Z,21.82
2019-04-25T16:40:20.338Z,20.54
2019-04-25T16:42:51.071Z,21.69
2019-04-25T16:45:18.452Z,21.32
2019-04-25T16:47:45.827Z,20.92
2019-04-25T16:50:13.905Z,21.66
2019-04-25T16:52:41.267Z,22.00
2019-04-25T16:55:10.708Z,22.26
2019-04-25T16:57:38.008Z,21.94
2019-04-25T17:00:09.723Z,23.23
2019-04-25T17:02:40.714Z,22.34
2019-04-25T17:05:07.181Z,24.08
2019-04-25T17:07:34.588Z,20.44
2019-04-25T17:10:02.798Z,22.59
2019-04-25T17:12:31.150Z,23.84
2019-04-25T17:15:15.332Z,20.74
2019-04-25T17:18:07.333Z,22.09
2019-04-25T17:20:39.739Z,22.19
2019-04-25T17:23:07.938Z,22.63
2019-04-25T17:25:48.015Z,23.41
2019-04-25T17:28:16.567Z,22.25
2019-04-25T17:30:46.238Z,23.91
2019-04-25T17:33:40.293Z,23.48
2019-04-25T17:36:22.020Z,22.82
2019-04-25T17:39:18.083Z,22.60
2019-04-25T17:41:45.286Z,22.17
2019-04-25T17:44:12.643Z,22.79
2019-04-25T17:47:05.656Z,23.19
2019-04-25T17:49:23.134Z,23.41
2019-04-25T17:51:50.451Z,23.89
2019-04-25T17:54:18.517Z,24.25
2019-04-25T17:56:46.086Z,24.07
2019-04-25T17:59:13.411Z,24.29
2019-04-25T18:01:40.885Z,24.56
2019-04-25T18:04:08.788Z,25.49
2019-04-25T18:06:37.665Z,23.40
2019-04-25T18:09:06.572Z,27.78
2019-04-25T18:11:34.738Z,30.15
2019-04-25T18:14:02.685Z,30.64
2019-04-25T18:16:38.355Z,31.18
2019-04-25T18:19:13.370Z,31.64
2019-04-25T18:21:41.033Z,33.11
2019-04-25T18:24:37.262Z,34.10
2019-04-25T18:27:14.445Z,35.68
2019-04-25T18:29:42.000Z,35.41
2019-04-25T18:32:10.088Z,35.73
2019-04-25T18:34:44.480Z,35.61
2019-04-25T18:37:19.965Z,36.50
2019-04-25T18:39:55.542Z,36.32
2019-04-25T18:42:41.964Z,37.39
2019-04-25T18:45:12.964Z,37.98
2019-04-25T18:47:40.714Z,37.89
2019-04-25T18:50:10.656Z,38.99
2019-04-25T18:53:04.052Z,39.18
2019-04-25T18:55:41.258Z,39.25
2019-04-25T18:58:16.361Z,38.44
2019-04-25T19:00:52.456Z,38.48
2019-04-25T19:03:39.477Z,38.67
2019-04-25T19:06:10.342Z,38.21
2019-04-25T19:08:38.560Z,37.98
2019-04-25T19:11:07.612Z,37.51
2019-04-25T19:13:35.362Z,37.38
2019-04-25T19:16:03.241Z,37.65
2019-04-25T19:18:31.645Z,38.24
2019-04-25T19:20:59.291Z,38.03
2019-04-25T19:23:26.953Z,38.10
2019-04-25T19:25:55.235Z,38.24
2019-04-25T19:28:24.064Z,37.76
2019-04-25T19:30:52.329Z,38.02
2019-04-25T19:33:34.543Z,38.05
2019-04-25T19:35:52.263Z,38.40
2019-04-25T19:38:20.404Z,38.29
2019-04-25T19:41:06.718Z,38.30
2019-04-25T19:43:44.478Z,38.66
2019-04-25T19:46:12.502Z,39.42
2019-04-25T19:48:41.231Z,39.58
2019-04-25T19:51:09.368Z,40.24
2019-04-25T19:53:37.246Z,39.73
2019-04-25T19:56:05.013Z,39.38
2019-04-25T19:58:33.758Z,40.31
2019-04-25T20:01:01.982Z,40.97
2019-04-25T20:03:54.961Z,40.28
2019-04-25T20:06:37.233Z,41.12
2019-04-25T20:09:19.660Z,40.56
2019-04-25T20:11:49.393Z,41.09
2019-04-25T20:14:16.962Z,41.68
2019-04-25T20:16:46.077Z,41.32
2019-04-25T20:19:13.884Z,40.79
2019-04-25T20:21:41.552Z,42.03
2019-04-25T20:24:09.327Z,42.42
2019-04-25T20:26:37.205Z,42.15
2019-04-25T20:29:04.947Z,43.00
2019-04-25T20:31:32.923Z,42.70
2019-04-25T20:34:05.868Z,42.58
2019-04-25T20:36:30.278Z,42.18
2019-04-25T20:38:57.884Z,42.90
2019-04-25T20:41:25.342Z,42.67
2019-04-25T20:44:07.300Z,42.37
2019-04-25T20:46:34.707Z,42.81
2019-04-25T20:49:02.105Z,43.29
2019-04-25T20:51:29.669Z,42.54
2019-04-25T20:53:57.124Z,44.35
2019-04-25T20:56:24.408Z,44.04
2019-04-25T20:58:51.597Z,43.49
2019-04-25T21:01:18.762Z,44.18
2019-04-25T21:03:46.034Z,43.51
2019-04-25T21:06:18.990Z,43.76
2019-04-25T21:08:46.165Z,44.16
2019-04-25T21:11:13.753Z,44.73
2019-04-25T21:14:01.481Z,46.23
2019-04-25T21:16:47.568Z,45.78
2019-04-25T21:19:17.471Z,46.53
2019-04-25T21:21:44.724Z,45.09
2019-04-25T21:24:12.218Z,47.08
2019-04-25T21:26:39.642Z,46.40
2019-04-25T21:29:07.001Z,45.52
2019-04-25T21:31:34.160Z,45.43
2019-04-25T21:34:01.581Z,46.69
2019-04-25T21:36:29.111Z,46.33
2019-04-25T21:38:56.470Z,46.46
2019-04-25T21:41:56.575Z,45.26
2019-04-25T21:44:24.162Z,47.22
2019-04-25T21:46:52.177Z,47.41
2019-04-25T21:49:20.654Z,46.23
2019-04-25T21:51:47.814Z,46.24
2019-04-25T21:54:14.978Z,48.32
2019-04-25T21:56:42.745Z,47.57
2019-04-25T21:59:10.453Z,47.70
2019-04-25T22:01:40.903Z,46.90
2019-04-25T22:04:15.277Z,47.20
2019-04-25T22:06:46.356Z,46.22
2019-04-25T22:09:16.795Z,47.80
2019-04-25T22:11:44.639Z,47.24
2019-04-25T22:14:13.139Z,46.31
2019-04-25T22:16:42.813Z,46.37
2019-04-25T22:19:10.698Z,46.83
2019-04-25T22:21:40.728Z,47.47
2019-04-25T22:24:11.268Z,46.72
2019-04-25T22:26:37.476Z,46.96
2019-04-25T22:29:05.644Z,47.15
2019-04-25T22:31:41.762Z,46.42
2019-04-25T22:34:20.356Z,46.41
2019-04-25T22:36:47.887Z,47.33
2019-04-25T22:39:15.287Z,46.98
2019-04-25T22:41:46.510Z,47.58
2019-04-25T22:44:15.707Z,47.96
2019-04-25T22:46:43.644Z,48.52
2019-04-25T22:49:11.824Z,47.92
2019-04-25T22:51:39.413Z,49.68
2019-04-25T22:54:07.429Z,50.47
2019-04-25T22:56:35.333Z,50.25
2019-04-25T22:59:04.833Z,49.88
2019-04-25T23:02:07.583Z,51.84
2019-04-25T23:05:09.047Z,51.86
2019-04-25T23:07:30.299Z,50.24
2019-04-25T23:09:58.061Z,53.18
2019-04-25T23:12:25.944Z,51.47
2019-04-25T23:14:54.214Z,52.43
2019-04-25T23:17:21.594Z,51.68
2019-04-25T23:19:49.180Z,51.81
2019-04-25T23:22:18.305Z,53.04
2019-04-25T23:24:54.842Z,53.94
2019-04-25T23:27:44.341Z,52.63
2019-04-25T23:30:14.649Z,52.27
2019-04-25T23:32:48.641Z,51.13
2019-04-25T23:35:28.577Z,54.49
2019-04-25T23:37:45.164Z,55.16
2019-04-25T23:40:13.650Z,54.24
2019-04-25T23:42:41.254Z,53.86
2019-04-25T23:45:10.264Z,52.44
2019-04-25T23:47:37.468Z,55.85
2019-04-25T23:50:07.033Z,53.26
2019-04-25T23:52:34.708Z,55.78
2019-04-25T23:55:02.131Z,55.90
2019-04-25T23:57:29.636Z,54.19
2019-04-25T23:59:57.150Z,55.14
